^^
B2 Weather Station Historical Data
Daily Summary for June 29, 2019 Units:  English    Metric   Both
Daily Weekly Monthly Yearly Custom
  High: Low: Average:
Temperature: 92.3 °F 67.5 °F 79.4 °F
Dew Point: 76.1 °F 65.7 °F 70.7 °F
Humidity: 95% 52% 76%
Wind Speed: 10.4mph 0mph 2.2mph
Wind Gust: 5.9mph - -
Wind- - WSW
Pressure: 30.09 in 29.96 in -
Precipitation: 0 in    
Historical Graphs
 
 
Tabular Data for June 29, 2019
Time Temperature Dew Point Pressure Wind Wind Speed Wind Gust Humidity Rainfall Rate (Hourly) solar
00:04 74.6 °F 69.4 °F 30.07 in Calm     84% 0 in 0.00 W/m2
00:09 74.3 °F 69.5 °F 30.07 in Calm     85% 0 in 0.00 W/m2
00:14 74.1 °F 69.6 °F 30.07 in Calm     86% 0 in 0.00 W/m2
00:19 73.8 °F 69.7 °F 30.07 in Calm     87% 0 in 0.00 W/m2
00:24 73.7 °F 69.9 °F 30.07 in Calm     88% 0 in 0.00 W/m2
00:29 73.5 °F 69.7 °F 30.07 in Calm     88% 0 in 0.00 W/m2
00:34 73.2 °F 69.4 °F 30.07 in Calm     88% 0 in 0.00 W/m2
00:39 72.9 °F 69.5 °F 30.07 in Calm     89% 0 in 0.00 W/m2
00:44 72.7 °F 69.6 °F 30.07 in Calm     90% 0 in 0.00 W/m2
00:49 72.6 °F 69.5 °F 30.07 in WSW 1.2 mph   90% 0 in 0.00 W/m2
00:54 72.6 °F 69.5 °F 30.07 in WSW 1 mph 0.3 mph 90% 0 in 0.00 W/m2
00:59 72.4 °F 69.3 °F 30.07 in Calm     90% 0 in 0.00 W/m2
01:04 72.4 °F 69.3 °F 30.07 in Calm     90% 0 in 0.00 W/m2
01:09 72.4 °F 69 °F 30.07 in Calm     89% 0 in 0.00 W/m2
01:14 72.5 °F 69.1 °F 30.07 in Calm     89% 0 in 0.00 W/m2
01:19 72.5 °F 69.1 °F 30.07 in Calm     89% 0 in 0.00 W/m2
01:24 72.5 °F 69.1 °F 30.07 in Calm     89% 0 in 0.00 W/m2
01:29 72.6 °F 69.2 °F 30.06 in Calm     89% 0 in 0.00 W/m2
01:34 72.5 °F 69.1 °F 30.07 in Calm     89% 0 in 0.00 W/m2
01:39 72.4 °F 69 °F 30.06 in Calm     89% 0 in 0.00 W/m2
01:44 72.3 °F 68.9 °F 30.06 in Calm   0.1 mph 89% 0 in 0.00 W/m2
01:49 72.3 °F 68.9 °F 30.06 in WSW 2.3 mph   89% 0 in 0.00 W/m2
01:54 72.3 °F 68.9 °F 30.06 in Calm     89% 0 in 0.00 W/m2
01:59 72.4 °F 69 °F 30.06 in SW 1.2 mph   89% 0 in 0.00 W/m2
02:04 72.3 °F 68.9 °F 30.06 in Calm     89% 0 in 0.00 W/m2
02:09 72.2 °F 68.8 °F 30.06 in SW 1.2 mph 0.3 mph 89% 0 in 0.00 W/m2
02:14 72.2 °F 68.8 °F 30.06 in Calm   0.2 mph 89% 0 in 0.00 W/m2
02:19 72.1 °F 68.7 °F 30.06 in SW 1.2 mph   89% 0 in 0.00 W/m2
02:24 72.1 °F 68.7 °F 30.06 in Calm     89% 0 in 0.00 W/m2
02:29 72.1 °F 68.7 °F 30.06 in Calm     89% 0 in 0.00 W/m2
02:34 71.9 °F 68.5 °F 30.06 in Calm     89% 0 in 0.00 W/m2
02:39 71.8 °F 68.4 °F 30.06 in Calm     89% 0 in 0.00 W/m2
02:44 71.7 °F 68.6 °F 30.06 in Calm     90% 0 in 0.00 W/m2
02:49 71.6 °F 68.5 °F 30.06 in SW 1.2 mph   90% 0 in 0.00 W/m2
02:54 71.5 °F 68.4 °F 30.06 in SW 1.2 mph 0.1 mph 90% 0 in 0.00 W/m2
02:59 71.4 °F 68.3 °F 30.06 in Calm     90% 0 in 0.00 W/m2
03:04 71.3 °F 68.5 °F 30.06 in Calm     91% 0 in 0.00 W/m2
03:09 71.2 °F 68.4 °F 30.06 in Calm     91% 0 in 0.00 W/m2
03:14 71.1 °F 68.3 °F 30.06 in SW 1.2 mph   91% 0 in 0.00 W/m2
03:19 71 °F 68.2 °F 30.06 in Calm     91% 0 in 0.00 W/m2
03:24 71 °F 68.2 °F 30.06 in Calm     91% 0 in 0.00 W/m2
03:29 71 °F 68.2 °F 30.06 in Calm     91% 0 in 0.00 W/m2
03:34 70.9 °F 68.1 °F 30.06 in Calm     91% 0 in 0.00 W/m2
03:39 70.8 °F 68 °F 30.05 in SSW 1.2 mph   91% 0 in 0.00 W/m2
03:44 70.8 °F 68.4 °F 30.06 in Calm     92% 0 in 0.00 W/m2
03:49 70.8 °F 68.4 °F 30.06 in Calm     92% 0 in 0.00 W/m2
03:54 70.8 °F 68.4 °F 30.06 in Calm     92% 0 in 0.00 W/m2
03:59 70.7 °F 68.3 °F 30.06 in SSW 1.2 mph 0.1 mph 92% 0 in 0.00 W/m2
04:04 70.7 °F 68.3 °F 30.06 in Calm     92% 0 in 0.00 W/m2
04:09 70.8 °F 68.4 °F 30.06 in Calm     92% 0 in 0.00 W/m2
04:14 70.8 °F 68.4 °F 30.06 in Calm   0.1 mph 92% 0 in 0.00 W/m2
04:19 70.8 °F 68.4 °F 30.06 in SSW 2.3 mph   92% 0 in 0.00 W/m2
04:24 70.8 °F 68.4 °F 30.06 in Calm     92% 0 in 0.00 W/m2
04:29 70.7 °F 68.3 °F 30.06 in Calm     92% 0 in 0.00 W/m2
04:34 70.7 °F 68.3 °F 30.06 in Calm     92% 0 in 0.00 W/m2
04:39 70.6 °F 68.2 °F 30.05 in Calm     92% 0 in 0.00 W/m2
04:44 70.5 °F 68.1 °F 30.06 in Calm     92% 0 in 0.00 W/m2
04:49 70.4 °F 68 °F 30.06 in Calm     92% 0 in 0.00 W/m2
04:54 70.2 °F 67.8 °F 30.06 in Calm     92% 0 in 0.00 W/m2
04:59 70.1 °F 67.7 °F 30.06 in Calm     92% 0 in 0.00 W/m2
05:04 69.9 °F 67.8 °F 30.06 in Calm     93% 0 in 0.00 W/m2
05:09 69.7 °F 67.6 °F 30.06 in Calm     93% 0 in 0.00 W/m2
05:14 69.6 °F 67.5 °F 30.07 in Calm     93% 0 in 0.00 W/m2
05:19 69.4 °F 67.3 °F 30.07 in Calm     93% 0 in 0.00 W/m2
05:24 69.1 °F 66.7 °F 30.07 in Calm     92% 0 in 0.00 W/m2
05:29 68.7 °F 66.6 °F 30.07 in Calm     93% 0 in 0.00 W/m2
05:34 68.4 °F 66.3 °F 30.07 in Calm     93% 0 in 5.00 W/m2
05:39 68 °F 65.9 °F 30.07 in Calm     93% 0 in 9.00 W/m2
05:44 67.8 °F 65.7 °F 30.07 in Calm     93% 0 in 11.00 W/m2
05:49 67.7 °F 65.9 °F 30.07 in Calm     94% 0 in 12.00 W/m2
05:54 67.8 °F 66 °F 30.07 in Calm     94% 0 in 14.00 W/m2
05:59 67.8 °F 66 °F 30.07 in Calm     94% 0 in 18.00 W/m2
06:04 67.5 °F 65.7 °F 30.07 in Calm     94% 0 in 18.00 W/m2
06:09 67.5 °F 65.7 °F 30.07 in Calm     94% 0 in 18.00 W/m2
06:14 67.7 °F 65.9 °F 30.07 in Calm     94% 0 in 21.00 W/m2
06:19 68 °F 66.2 °F 30.07 in Calm     94% 0 in 37.00 W/m2
06:24 68.3 °F 66.8 °F 30.07 in Calm     95% 0 in 70.00 W/m2
06:29 68.7 °F 67.2 °F 30.07 in Calm   0.2 mph 95% 0 in 62.00 W/m2
06:34 69.5 °F 68 °F 30.07 in Calm     95% 0 in 91.00 W/m2
06:39 70.2 °F 68.7 °F 30.07 in Calm     95% 0 in 81.00 W/m2
06:44 70.6 °F 69.1 °F 30.07 in Calm     95% 0 in 125.00 W/m2
06:49 71 °F 69.5 °F 30.07 in Calm     95% 0 in 144.00 W/m2
06:54 71.6 °F 70.1 °F 30.07 in Calm     95% 0 in 160.00 W/m2
06:59 72 °F 70.5 °F 30.07 in Calm     95% 0 in 179.00 W/m2
07:04 72.4 °F 70.9 °F 30.07 in Calm     95% 0 in 197.00 W/m2
07:09 72.9 °F 71.1 °F 30.07 in Calm     94% 0 in 221.00 W/m2
07:14 73.3 °F 71.2 °F 30.07 in WSW 4 mph 2.8 mph 93% 0 in 241.00 W/m2
07:19 73.6 °F 70.8 °F 30.07 in SW 3.5 mph   91% 0 in 248.00 W/m2
07:24 74.2 °F 70.7 °F 30.07 in SSW 3 mph 1.3 mph 89% 0 in 271.00 W/m2
07:29 74.8 °F 70.7 °F 30.07 in Calm     87% 0 in 292.00 W/m2
07:34 75.2 °F 70 °F 30.07 in WSW 4.6 mph 0.7 mph 84% 0 in 276.00 W/m2
07:39 75.5 °F 70 °F 30.08 in SW 6 mph 3.2 mph 83% 0 in 290.00 W/m2
07:44 75.7 °F 69.5 °F 30.08 in WSW 8.1 mph 4.9 mph 81% 0 in 265.00 W/m2
07:49 75.8 °F 69.6 °F 30.08 in SW 8.1 mph 5.2 mph 81% 0 in 315.00 W/m2
07:54 75.9 °F 69.6 °F 30.08 in WSW 4.6 mph 2.5 mph 81% 0 in 334.00 W/m2
07:59 76.2 °F 69.9 °F 30.08 in WSW 3 mph 2.1 mph 81% 0 in 341.00 W/m2
08:04 76.5 °F 69.9 °F 30.08 in WSW 4 mph 2.4 mph 80% 0 in 359.00 W/m2
08:09 76.8 °F 69.8 °F 30.08 in West 2 mph 1.8 mph 79% 0 in 369.00 W/m2
08:14 76.9 °F 69.1 °F 30.08 in West 3.5 mph 3.3 mph 77% 0 in 383.00 W/m2
08:19 77.2 °F 68.7 °F 30.09 in West 6.9 mph 2.8 mph 75% 0 in 408.00 W/m2
08:24 77.3 °F 68.4 °F 30.08 in West 9.2 mph 4.4 mph 74% 0 in 432.00 W/m2
08:29 77.4 °F 68.5 °F 30.08 in WSW 6.9 mph 3.2 mph 74% 0 in 436.00 W/m2
08:34 77.5 °F 68.2 °F 30.09 in SW 8.1 mph 1 mph 73% 0 in 457.00 W/m2
08:39 77.7 °F 68.4 °F 30.09 in WNW 6.9 mph 2 mph 73% 0 in 439.00 W/m2
08:44 77.9 °F 68.5 °F 30.09 in West 5.8 mph 1.6 mph 73% 0 in 475.00 W/m2
08:49 78.1 °F 68.7 °F 30.09 in WSW 3.5 mph 3.6 mph 73% 0 in 468.00 W/m2
08:54 78.1 °F 68.7 °F 30.09 in West 5.8 mph 1 mph 73% 0 in 415.00 W/m2
08:59 78.1 °F 68.3 °F 30.08 in NW 3.5 mph   72% 0 in 441.00 W/m2
09:04 78.4 °F 69 °F 30.08 in Calm   0.3 mph 73% 0 in 473.00 W/m2
09:09 78.8 °F 69 °F 30.08 in WNW 5.8 mph 0.1 mph 72% 0 in 499.00 W/m2
09:14 79.1 °F 68.9 °F 30.08 in Calm   0.1 mph 71% 0 in 540.00 W/m2
09:19 79.4 °F 69.2 °F 30.08 in WSW 4.6 mph 0.1 mph 71% 0 in 526.00 W/m2
09:24 79.4 °F 68.3 °F 30.08 in WSW 2 mph 2.3 mph 69% 0 in 554.00 W/m2
09:29 79.7 °F 69.5 °F 30.08 in WSW 2 mph 1.2 mph 71% 0 in 589.00 W/m2
09:34 79.8 °F 68.7 °F 30.08 in Calm     69% 0 in 533.00 W/m2
09:39 80 °F 69.3 °F 30.08 in WNW 6.9 mph 1.8 mph 70% 0 in 476.00 W/m2
09:44 80.1 °F 69 °F 30.08 in WNW 3.5 mph 0.6 mph 69% 0 in 462.00 W/m2
09:49 80.2 °F 69.9 °F 30.08 in WSW 4 mph 3.6 mph 71% 0 in 434.00 W/m2
09:54 80.2 °F 69.9 °F 30.08 in Calm     71% 0 in 508.00 W/m2
09:59 80.5 °F 69.8 °F 30.08 in WSW 6.9 mph 1.4 mph 70% 0 in 515.00 W/m2
10:04 80.8 °F 70.5 °F 30.08 in WNW 3.5 mph 0.1 mph 71% 0 in 545.00 W/m2
10:09 81 °F 69.9 °F 30.08 in West 4.6 mph 0.5 mph 69% 0 in 585.00 W/m2
10:14 81.3 °F 70.6 °F 30.08 in West 3 mph 3.2 mph 70% 0 in 615.00 W/m2
10:19 81.6 °F 70.9 °F 30.08 in Calm     70% 0 in 619.00 W/m2
10:24 81.7 °F 70.5 °F 30.08 in Calm   0.1 mph 69% 0 in 675.00 W/m2
10:29 81.9 °F 70.7 °F 30.08 in Calm   1.2 mph 69% 0 in 728.00 W/m2
10:34 82.2 °F 70.1 °F 30.08 in WNW 5.8 mph 1.7 mph 67% 0 in 663.00 W/m2
10:39 82.4 °F 70.3 °F 30.08 in Calm     67% 0 in 649.00 W/m2
10:44 82.3 °F 69.4 °F 30.08 in WNW 4.6 mph 1.3 mph 65% 0 in 613.00 W/m2
10:49 82.6 °F 70.5 °F 30.07 in WSW 1.2 mph 0.4 mph 67% 0 in 701.00 W/m2
10:54 82.9 °F 69.9 °F 30.07 in Calm     65% 0 in 512.00 W/m2
10:59 83.2 °F 70.2 °F 30.07 in West 6.9 mph 0.2 mph 65% 0 in 715.00 W/m2
11:04 83.4 °F 70.8 °F 30.07 in West 4 mph 1 mph 66% 0 in 721.00 W/m2
11:09 83.5 °F 70 °F 30.07 in Calm     64% 0 in 629.00 W/m2
11:14 83.7 °F 70.7 °F 30.06 in West 6.9 mph 2.1 mph 65% 0 in 780.00 W/m2
11:19 83.6 °F 70.1 °F 30.06 in SSW 3.5 mph 0.2 mph 64% 0 in 838.00 W/m2
11:24 84 °F 72.7 °F 30.06 in North 2.3 mph   69% 0 in 853.00 W/m2
11:29 84.5 °F 73.2 °F 30.06 in Calm     69% 0 in 772.00 W/m2
11:34 84.5 °F 71.9 °F 30.06 in WNW 5 mph 3.5 mph 66% 0 in 714.00 W/m2
11:39 84.5 °F 71.4 °F 30.06 in Calm     65% 0 in 758.00 W/m2
11:44 84.8 °F 72.6 °F 30.05 in NNW 4 mph 1.9 mph 67% 0 in 779.00 W/m2
11:49 85 °F 71.9 °F 30.05 in Calm     65% 0 in 788.00 W/m2
11:54 85.2 °F 73 °F 30.05 in WNW 2.3 mph 0.9 mph 67% 0 in 817.00 W/m2
11:59 85.4 °F 72.3 °F 30.05 in WNW 5 mph 3.8 mph 65% 0 in 842.00 W/m2
12:04 85.8 °F 73.6 °F 30.05 in NW 3.5 mph   67% 0 in 856.00 W/m2
12:09 86.1 °F 71.6 °F 30.05 in NNW 3.5 mph 0.1 mph 62% 0 in 842.00 W/m2
12:14 86.3 °F 71.7 °F 30.05 in Calm     62% 0 in 840.00 W/m2
12:19 86.3 °F 71.7 °F 30.05 in West 3 mph 0.9 mph 62% 0 in 854.00 W/m2
12:24 86.5 °F 71 °F 30.05 in WSW 3.5 mph   60% 0 in 847.00 W/m2
12:29 86.9 °F 72.8 °F 30.05 in North 8 mph 1.2 mph 63% 0 in 838.00 W/m2
12:34 87 °F 73.8 °F 30.05 in North 1.2 mph   65% 0 in 868.00 W/m2
12:39 87.1 °F 72 °F 30.05 in NNW 5.8 mph 0.1 mph 61% 0 in 870.00 W/m2
12:44 87.4 °F 72.8 °F 30.05 in Calm     62% 0 in 851.00 W/m2
12:49 87.9 °F 73.7 °F 30.05 in WNW 4.6 mph 2 mph 63% 0 in 877.00 W/m2
12:54 88.1 °F 73 °F 30.05 in North 4.6 mph 3.7 mph 61% 0 in 856.00 W/m2
12:59 88.1 °F 71.5 °F 30.05 in WNW 2.3 mph 2.7 mph 58% 0 in 881.00 W/m2
13:04 88.4 °F 72.2 °F 30.05 in NNW 3.5 mph   59% 0 in 891.00 W/m2
13:09 88.7 °F 74 °F 30.05 in NNW 4.6 mph 3.4 mph 62% 0 in 905.00 W/m2
13:14 88.8 °F 73.1 °F 30.05 in NNW 3.5 mph 1.3 mph 60% 0 in 921.00 W/m2
13:19 88.7 °F 72.5 °F 30.05 in NW 2.3 mph 0.4 mph 59% 0 in 844.00 W/m2
13:24 89 °F 73.8 °F 30.04 in WSW 4.6 mph 1.4 mph 61% 0 in 893.00 W/m2
13:29 89.3 °F 73.1 °F 30.04 in West 6.9 mph 2.7 mph 59% 0 in 896.00 W/m2
13:34 89.5 °F 74.3 °F 30.04 in North 3.5 mph 1.3 mph 61% 0 in 888.00 W/m2
13:39 89.8 °F 75.5 °F 30.04 in Calm     63% 0 in 912.00 W/m2
13:44 90 °F 72.7 °F 30.04 in NNW 2.3 mph 0.7 mph 57% 0 in 872.00 W/m2
13:49 90.4 °F 73.6 °F 30.04 in NW 6.9 mph 4 mph 58% 0 in 969.00 W/m2
13:54 90.2 °F 71.8 °F 30.04 in West 4.6 mph 3.6 mph 55% 0 in 501.00 W/m2
13:59 89.8 °F 73.6 °F 30.04 in WNW 2.3 mph 0.5 mph 59% 0 in 213.00 W/m2
14:04 89.4 °F 74.7 °F 30.03 in SSW 3.5 mph 0.7 mph 62% 0 in 267.00 W/m2
14:09 89.6 °F 73.9 °F 30.03 in SW 2.3 mph 1.6 mph 60% 0 in 830.00 W/m2
14:14 89.8 °F 74.6 °F 30.03 in SW 5.8 mph 0.7 mph 61% 0 in 497.00 W/m2
14:19 89.7 °F 73.5 °F 30.03 in NW 1.2 mph 0.3 mph 59% 0 in 394.00 W/m2
14:24 89.7 °F 74 °F 30.03 in WSW 3.5 mph 2.5 mph 60% 0 in 965.00 W/m2
14:29 90 °F 75.7 °F 30.03 in WNW 2.3 mph 0.2 mph 63% 0 in 817.00 W/m2
14:34 90.3 °F 74.5 °F 30.03 in NW 8.1 mph 2.9 mph 60% 0 in 888.00 W/m2
14:39 90.5 °F 72.7 °F 30.02 in WNW 9.2 mph 2.5 mph 56% 0 in 965.00 W/m2
14:44 90.6 °F 71.7 °F 30.02 in WSW 8.1 mph 4.2 mph 54% 0 in 921.00 W/m2
14:49 90.8 °F 71.9 °F 30.02 in SW 4.6 mph 2.3 mph 54% 0 in 875.00 W/m2
14:54 91 °F 72.6 °F 30.02 in SW 5.8 mph 4.1 mph 55% 0 in 826.00 W/m2
14:59 91.1 °F 73.2 °F 30.02 in WNW 9.2 mph 4 mph 56% 0 in 844.00 W/m2
15:04 91.3 °F 71.8 °F 30.02 in West 6.9 mph 3.8 mph 53% 0 in 861.00 W/m2
15:09 91.5 °F 73.6 °F 30.02 in WNW 6.9 mph 2 mph 56% 0 in 459.00 W/m2
15:14 91 °F 70.9 °F 30.02 in WSW 4.6 mph 3.1 mph 52% 0 in 462.00 W/m2
15:19 90.8 °F 72.4 °F 30.02 in NNW 8.1 mph 2.3 mph 55% 0 in 895.00 W/m2
15:24 91 °F 72.6 °F 30.02 in NW 4.6 mph 2.9 mph 55% 0 in 821.00 W/m2
15:29 91 °F 71.5 °F 30.02 in NNW 8.1 mph 4.8 mph 53% 0 in 823.00 W/m2
15:34 90.4 °F 70.9 °F 30.02 in NW 8.1 mph 4.7 mph 53% 0 in 258.00 W/m2
15:39 90.1 °F 70.7 °F 30.01 in WNW 4.6 mph 3.3 mph 53% 0 in 758.00 W/m2
15:44 90.5 °F 72.7 °F 30.01 in NW 6.9 mph 3.8 mph 56% 0 in 744.00 W/m2
15:49 90.8 °F 72.4 °F 30.01 in North 4.6 mph 3.9 mph 55% 0 in 738.00 W/m2
15:54 91.1 °F 73.2 °F 30.01 in NW 3.5 mph 3.5 mph 56% 0 in 722.00 W/m2
15:59 91.4 °F 73 °F 30.01 in NNW 4 mph 3.4 mph 55% 0 in 679.00 W/m2
16:04 91.7 °F 74.3 °F 30.00 in NW 8.1 mph 4.2 mph 57% 0 in 668.00 W/m2
16:09 91.7 °F 73.8 °F 30.00 in WNW 4.6 mph 4.2 mph 56% 0 in 656.00 W/m2
16:14 91.7 °F 72.1 °F 30.00 in WSW 4.6 mph 3.4 mph 53% 0 in 657.00 W/m2
16:19 91.8 °F 73.3 °F 30.00 in NW 5.8 mph 1.7 mph 55% 0 in 666.00 W/m2
16:24 92.1 °F 73.6 °F 30.00 in NNW 5 mph 3.7 mph 55% 0 in 622.00 W/m2
16:29 92 °F 71.9 °F 30.00 in West 4.6 mph 3 mph 52% 0 in 601.00 W/m2
16:34 92 °F 73 °F 30.00 in WNW 10.4 mph 5.5 mph 54% 0 in 592.00 W/m2
16:39 92 °F 73 °F 30.00 in WNW 6.9 mph 3.7 mph 54% 0 in 564.00 W/m2
16:44 92 °F 73 °F 29.99 in NNW 4.6 mph 2 mph 54% 0 in 564.00 W/m2
16:49 92 °F 73 °F 29.99 in North 9.2 mph 5.9 mph 54% 0 in 538.00 W/m2
16:54 91.9 °F 72.9 °F 29.99 in NNW 6.9 mph 3.2 mph 54% 0 in 522.00 W/m2
16:59 91.8 °F 72.8 °F 29.98 in NNW 3.5 mph 1.1 mph 54% 0 in 492.00 W/m2
17:04 92 °F 73 °F 29.98 in NW 9.2 mph 5 mph 54% 0 in 503.00 W/m2
17:09 92 °F 73 °F 29.98 in West 5.8 mph 1.9 mph 54% 0 in 483.00 W/m2
17:14 92.2 °F 73.7 °F 29.98 in NNW 4 mph 2.7 mph 55% 0 in 469.00 W/m2
17:19 92.3 °F 74.9 °F 29.98 in NNW 5 mph 2.8 mph 57% 0 in 455.00 W/m2
17:24 92 °F 74.1 °F 29.98 in NNW 4 mph 3.9 mph 56% 0 in 443.00 W/m2
17:29 91.7 °F 74.3 °F 29.98 in North 6 mph 5.3 mph 57% 0 in 434.00 W/m2
17:34 91.4 °F 72.4 °F 29.98 in NNW 4.6 mph 2.5 mph 54% 0 in 380.00 W/m2
17:39 91.2 °F 74.4 °F 29.97 in North 5.8 mph 4.1 mph 58% 0 in 237.00 W/m2
17:44 90.4 °F 74.1 °F 29.97 in North 3.5 mph 2.6 mph 59% 0 in 153.00 W/m2
17:49 89.5 °F 74.3 °F 29.96 in NNE 5.8 mph 3.7 mph 61% 0 in 204.00 W/m2
17:54 88.8 °F 74.1 °F 29.96 in North 6.9 mph 4.3 mph 62% 0 in 202.00 W/m2
17:59 88.3 °F 73.6 °F 29.96 in North 5.8 mph 2.9 mph 62% 0 in 149.00 W/m2
18:04 88.3 °F 74.6 °F 29.97 in NNW 3.5 mph 1.9 mph 64% 0 in 127.00 W/m2
18:09 88.2 °F 74.5 °F 29.97 in North 1.2 mph 0.5 mph 64% 0 in 135.00 W/m2
18:14 88 °F 74.8 °F 29.98 in North 2.3 mph 0.4 mph 65% 0 in 151.00 W/m2
18:19 87.9 °F 73.7 °F 29.98 in North 3.5 mph 0.5 mph 63% 0 in 111.00 W/m2
18:24 88 °F 74.3 °F 29.98 in NNW 3 mph 1.4 mph 64% 0 in 113.00 W/m2
18:29 88.4 °F 73.7 °F 29.98 in NW 4.6 mph 3 mph 62% 0 in 123.00 W/m2
18:34 88.9 °F 75.6 °F 29.98 in NNE 3.5 mph 1.9 mph 65% 0 in 227.00 W/m2
18:39 88.9 °F 76.1 °F 29.98 in NNE 3.5 mph   66% 0 in 211.00 W/m2
18:44 88.5 °F 75.7 °F 29.98 in Calm   0.1 mph 66% 0 in 83.00 W/m2
18:49 87.9 °F 75.1 °F 29.98 in East 1 mph 1.1 mph 66% 0 in 79.00 W/m2
18:54 87 °F 74.7 °F 29.98 in ENE 3.5 mph 0.9 mph 67% 0 in 65.00 W/m2
18:59 86.1 °F 74.3 °F 29.98 in NE 2.3 mph   68% 0 in 53.00 W/m2
19:04 85.6 °F 74.7 °F 29.98 in Calm     70% 0 in 83.00 W/m2
19:09 85.3 °F 74.8 °F 29.98 in East 2.3 mph 0.4 mph 71% 0 in 95.00 W/m2
19:14 85 °F 74.1 °F 29.98 in NNE 3.5 mph 3.8 mph 70% 0 in 65.00 W/m2
19:19 84.5 °F 74.1 °F 29.98 in NNE 5 mph 0.1 mph 71% 0 in 53.00 W/m2
19:24 84 °F 74 °F 29.98 in Calm     72% 0 in 88.00 W/m2
19:29 83.6 °F 73.6 °F 29.98 in Calm     72% 0 in 77.00 W/m2
19:34 83.4 °F 73.8 °F 29.98 in Calm     73% 0 in 53.00 W/m2
19:39 83 °F 73 °F 29.99 in NE 3.5 mph   72% 0 in 49.00 W/m2
19:44 82.5 °F 73 °F 30.00 in North 3.5 mph   73% 0 in 42.00 W/m2
19:49 82.3 °F 73.2 °F 30.00 in Calm     74% 0 in 37.00 W/m2
19:54 82.1 °F 72.6 °F 30.00 in Calm     73% 0 in 32.00 W/m2
19:59 81.8 °F 73.1 °F 30.00 in Calm     75% 0 in 28.00 W/m2
20:04 81.4 °F 73.1 °F 30.00 in East 2.3 mph 0.4 mph 76% 0 in 21.00 W/m2
20:09 80.7 °F 72.4 °F 30.01 in ENE 3.5 mph 0.3 mph 76% 0 in 18.00 W/m2
20:14 80 °F 71 °F 30.00 in Calm   0.4 mph 74% 0 in 12.00 W/m2
20:19 79.5 °F 70.5 °F 30.00 in NE 2.3 mph   74% 0 in 7.00 W/m2
20:24 79.1 °F 70.5 °F 30.00 in Calm     75% 0 in 0.00 W/m2
20:29 78.6 °F 70.4 °F 30.00 in Calm     76% 0 in 0.00 W/m2
20:34 78.2 °F 70.4 °F 30.00 in Calm     77% 0 in 0.00 W/m2
20:39 77.9 °F 70.5 °F 30.00 in Calm     78% 0 in 0.00 W/m2
20:44 77.5 °F 70.8 °F 30.00 in Calm     80% 0 in 0.00 W/m2
20:50 77.2 °F 70.9 °F 30.00 in Calm     81% 0 in 0.00 W/m2
20:54 76.8 °F 70.5 °F 30.00 in Calm     81% 0 in 0.00 W/m2
20:59 76.6 °F 70.7 °F 30.00 in ENE 3.5 mph 1.3 mph 82% 0 in 0.00 W/m2
21:04 76.4 °F 70.9 °F 30.01 in Calm     83% 0 in 0.00 W/m2
21:09 76.2 °F 70.7 °F 30.01 in Calm     83% 0 in 0.00 W/m2
21:14 75.9 °F 70.7 °F 30.02 in Calm     84% 0 in 0.00 W/m2
21:19 75.7 °F 70.9 °F 30.01 in Calm     85% 0 in 0.00 W/m2
21:24 75.4 °F 70.6 °F 30.02 in Calm     85% 0 in 0.00 W/m2
21:29 75.2 °F 70.7 °F 30.02 in Calm     86% 0 in 0.00 W/m2
21:34 75 °F 70.5 °F 30.02 in Calm     86% 0 in 0.00 W/m2
21:39 74.8 °F 70.3 °F 30.02 in Calm     86% 0 in 0.00 W/m2
21:44 74.7 °F 70.6 °F 30.02 in Calm     87% 0 in 0.00 W/m2
21:49 74.6 °F 70.5 °F 30.02 in Calm     87% 0 in 0.00 W/m2
21:54 74.4 °F 70.6 °F 30.02 in Calm     88% 0 in 0.00 W/m2
21:59 74.2 °F 70.7 °F 30.02 in Calm     89% 0 in 0.00 W/m2
22:04 74.1 °F 70.6 °F 30.02 in Calm     89% 0 in 0.00 W/m2
22:09 73.9 °F 70.1 °F 30.02 in Calm     88% 0 in 0.00 W/m2
22:14 73.8 °F 70.4 °F 30.02 in Calm     89% 0 in 0.00 W/m2
22:19 73.5 °F 70.4 °F 30.02 in Calm     90% 0 in 0.00 W/m2
22:24 73.4 °F 70.3 °F 30.02 in Calm     90% 0 in 0.00 W/m2
22:29 73.2 °F 70.1 °F 30.02 in Calm     90% 0 in 0.00 W/m2
22:34 73.1 °F 70.3 °F 30.02 in Calm     91% 0 in 0.00 W/m2
22:39 73 °F 70.2 °F 30.02 in Calm     91% 0 in 0.00 W/m2
22:44 73 °F 70.2 °F 30.02 in Calm     91% 0 in 0.00 W/m2
22:49 72.9 °F 70.1 °F 30.02 in Calm     91% 0 in 0.00 W/m2
22:54 72.7 °F 69.9 °F 30.02 in Calm     91% 0 in 0.00 W/m2
22:59 72.5 °F 69.7 °F 30.02 in Calm     91% 0 in 0.00 W/m2
23:04 72.2 °F 69.4 °F 30.03 in Calm     91% 0 in 0.00 W/m2
23:09 72.2 °F 69.7 °F 30.02 in Calm     92% 0 in 0.00 W/m2
23:14 72.1 °F 69.6 °F 30.02 in Calm     92% 0 in 0.00 W/m2
23:19 71.8 °F 69.3 °F 30.02 in Calm     92% 0 in 0.00 W/m2
23:24 71.7 °F 69.3 °F 30.02 in Calm     92% 0 in 0.00 W/m2
23:29 71.6 °F 69.2 °F 30.02 in Calm     92% 0 in 0.00 W/m2
23:34 71.7 °F 69.6 °F 30.02 in Calm     93% 0 in 0.00 W/m2
23:39 71.7 °F 69.6 °F 30.02 in Calm     93% 0 in 0.00 W/m2
23:44 71.7 °F 69.6 °F 30.02 in Calm     93% 0 in 0.00 W/m2
23:49 71.7 °F 69.6 °F 30.02 in Calm     93% 0 in 0.00 W/m2
23:54 71.7 °F 69.6 °F 30.03 in Calm     93% 0 in 0.00 W/m2
23:59 71.7 °F 69.6 °F 30.02 in Calm     93% 0 in 0.00 W/m2
Bourbonnais, Illinois, USA
Compliments of Weather Underground - 4 mb